Time;durP1;ratioP1;P1;durP2;ratioP2;P2;SDS_P1;SDS_P2;PMS_P1;PMS_P2;Temp;Humidity;BMP_temperature;BMP_pressure;BME280_temperature;BME280_humidity;BME280_pressure;Samples;Min_cycle;Max_cycle;Signal;HPM_P1;HPM_P2
2024/02/23 00:02:08;;;;;;;32.53;19.33;;;;;;;;;;5126188;27;317533;-81
2024/02/23 00:04:38;;;;;;;33.37;19.43;;;;;;;;;;5099935;27;418776;-80
2024/02/23 00:07:07;;;;;;;29.37;18.50;;;;;;;;;;5143867;27;319026;-79
2024/02/23 00:09:37;;;;;;;26.97;17.50;;;;;;;;;;5112543;27;317463;-79
2024/02/23 00:12:04;;;;;;;44.83;22.33;;;;;;;;;;5125763;27;318050;-79
2024/02/23 00:14:32;;;;;;;29.93;18.30;;;;;;;;;;5116777;27;318016;-79
2024/02/23 00:17:01;;;;;;;28.80;18.23;;;;;;;;;;5134743;27;317453;-79
2024/02/23 00:19:31;;;;;;;34.00;20.33;;;;;;;;;;5110179;27;317559;-79
2024/02/23 00:24:28;;;;;;;28.77;19.60;;;;;;;;;;5120476;27;355872;-80
2024/02/23 00:26:55;;;;;;;26.47;17.77;;;;;;;;;;5124159;27;317592;-79
2024/02/23 00:29:23;;;;;;;30.70;19.60;;;;;;;;;;5103005;27;317656;-80
2024/02/23 00:31:51;;;;;;;28.03;19.50;;;;;;;;;;5133106;27;348618;-80
2024/02/23 00:39:27;;;;;;;23.97;17.93;;;;;;;;;;5133915;27;317437;-80
2024/02/23 00:41:55;;;;;;;29.97;18.97;;;;;;;;;;5133483;27;317492;-80
2024/02/23 00:44:23;;;;;;;27.57;17.73;;;;;;;;;;5106626;27;318066;-79
2024/02/23 00:46:50;;;;;;;27.43;15.77;;;;;;;;;;5126458;27;317679;-80
2024/02/23 00:49:17;;;;;;;24.33;16.27;;;;;;;;;;5119675;27;336916;-80
2024/02/23 00:51:45;;;;;;;20.70;15.07;;;;;;;;;;5145523;27;317503;-79
2024/02/23 00:54:13;;;;;;;21.30;14.10;;;;;;;;;;5129852;27;398937;-79
2024/02/23 00:56:44;;;;;;;19.97;14.47;;;;;;;;;;5138920;27;317933;-81
2024/02/23 00:59:13;;;;;;;25.20;16.73;;;;;;;;;;5129804;27;318060;-80
2024/02/23 01:01:40;;;;;;;19.33;15.63;;;;;;;;;;5145186;27;317620;-80
2024/02/23 01:04:09;;;;;;;20.60;14.77;;;;;;;;;;5124830;27;318178;-80
2024/02/23 01:06:37;;;;;;;18.83;14.93;;;;;;;;;;5070627;27;418047;-80
2024/02/23 01:09:04;;;;;;;22.47;17.10;;;;;;;;;;5128634;27;318155;-79
2024/02/23 01:11:34;;;;;;;21.47;16.63;;;;;;;;;;5133144;27;318169;-81
2024/02/23 01:14:03;;;;;;;26.47;16.07;;;;;;;;;;5144651;27;318200;-79
2024/02/23 01:16:32;;;;;;;27.13;16.77;;;;;;;;;;5123135;27;317732;-80
2024/02/23 01:18:59;;;;;;;18.20;15.37;;;;;;;;;;5145280;27;318101;-80
2024/02/23 01:21:26;;;;;;;21.63;15.50;;;;;;;;;;5131157;27;318087;-80
2024/02/23 01:23:54;;;;;;;21.23;15.93;;;;;;;;;;5145590;27;318235;-78
2024/02/23 01:26:28;;;;;;;20.37;14.90;;;;;;;;;;5128134;27;323062;-78
2024/02/23 01:28:56;;;;;;;19.27;13.97;;;;;;;;;;5146578;27;318257;-80
2024/02/23 01:31:26;;;;;;;17.53;13.30;;;;;;;;;;5134515;27;318174;-81
2024/02/23 01:33:54;;;;;;;19.33;14.37;;;;;;;;;;5147249;27;317886;-79
2024/02/23 01:36:21;;;;;;;17.73;12.97;;;;;;;;;;5130094;27;318237;-81
2024/02/23 01:38:49;;;;;;;19.87;14.73;;;;;;;;;;5141453;27;318219;-79
2024/02/23 01:41:17;;;;;;;24.57;15.20;;;;;;;;;;5134182;27;318185;-81
2024/02/23 01:43:45;;;;;;;19.50;13.30;;;;;;;;;;5145984;27;317436;-79
2024/02/23 01:46:16;;;;;;;21.40;12.77;;;;;;;;;;5133115;27;317612;-79
2024/02/23 01:48:46;;;;;;;15.73;12.57;;;;;;;;;;5129450;27;317709;-79
2024/02/23 01:51:14;;;;;;;18.50;12.13;;;;;;;;;;5132208;27;318123;-78
2024/02/23 01:53:42;;;;;;;19.37;13.43;;;;;;;;;;5146549;27;318191;-80
2024/02/23 01:56:11;;;;;;;17.97;13.60;;;;;;;;;;5147334;27;318093;-80
2024/02/23 01:58:38;;;;;;;16.17;12.20;;;;;;;;;;5123084;27;418100;-79
2024/02/23 02:01:06;;;;;;;18.57;11.53;;;;;;;;;;5148236;27;316379;-79
2024/02/23 02:03:34;;;;;;;17.07;12.70;;;;;;;;;;5124520;27;318259;-79
2024/02/23 02:06:05;;;;;;;19.57;13.20;;;;;;;;;;5134393;27;318178;-79
2024/02/23 02:08:33;;;;;;;21.13;13.17;;;;;;;;;;5114276;27;318156;-79
2024/02/23 02:11:01;;;;;;;19.80;13.07;;;;;;;;;;5145957;27;318425;-79
2024/02/23 02:13:29;;;;;;;26.43;15.53;;;;;;;;;;5131502;27;318289;-80
2024/02/23 02:15:58;;;;;;;23.60;14.23;;;;;;;;;;5147981;27;318388;-80
2024/02/23 02:18:26;;;;;;;19.37;15.17;;;;;;;;;;5128147;27;318188;-80
2024/02/23 02:20:56;;;;;;;22.80;13.00;;;;;;;;;;5147115;27;317968;-80
2024/02/23 02:23:27;;;;;;;19.07;14.50;;;;;;;;;;5137314;27;318551;-80
2024/02/23 02:25:54;;;;;;;19.73;13.47;;;;;;;;;;5148744;27;317608;-79
2024/02/23 02:28:23;;;;;;;20.00;14.03;;;;;;;;;;5127485;27;318820;-79
2024/02/23 02:30:50;;;;;;;19.80;13.50;;;;;;;;;;5150552;27;317427;-79
2024/02/23 02:33:18;;;;;;;19.03;13.93;;;;;;;;;;5125157;27;318587;-79
2024/02/23 02:35:44;;;;;;;16.67;13.40;;;;;;;;;;5147799;27;318362;-80
2024/02/23 02:38:12;;;;;;;23.13;14.27;;;;;;;;;;5133873;27;318478;-79
2024/02/23 02:40:44;;;;;;;18.83;14.33;;;;;;;;;;5135052;27;318092;-79
2024/02/23 02:43:13;;;;;;;20.77;14.80;;;;;;;;;;5134195;27;318462;-79
2024/02/23 02:45:40;;;;;;;25.13;13.73;;;;;;;;;;5145739;27;318037;-79
2024/02/23 02:48:08;;;;;;;19.43;14.40;;;;;;;;;;5146319;27;318381;-79
2024/02/23 02:50:39;;;;;;;20.60;14.50;;;;;;;;;;5124026;27;417277;-79
2024/02/23 02:53:06;;;;;;;19.40;13.37;;;;;;;;;;5145050;27;318141;-78
2024/02/23 02:55:32;;;;;;;21.67;15.23;;;;;;;;;;5132859;27;317453;-80
2024/02/23 02:58:01;;;;;;;20.53;14.83;;;;;;;;;;5149757;27;318362;-80
2024/02/23 03:00:30;;;;;;;22.60;14.60;;;;;;;;;;5128922;27;337486;-80
2024/02/23 03:02:59;;;;;;;22.40;15.50;;;;;;;;;;5149448;27;318168;-80
2024/02/23 03:05:27;;;;;;;26.37;15.23;;;;;;;;;;5134659;27;352766;-80
2024/02/23 03:07:55;;;;;;;27.17;17.57;;;;;;;;;;5147399;27;318271;-79
2024/02/23 03:10:24;;;;;;;34.40;20.07;;;;;;;;;;5126148;27;318323;-79
2024/02/23 03:12:52;;;;;;;30.90;17.50;;;;;;;;;;5145901;27;318042;-79
2024/02/23 03:15:22;;;;;;;23.47;16.50;;;;;;;;;;5136056;27;318354;-80
2024/02/23 03:17:48;;;;;;;29.17;18.30;;;;;;;;;;5146251;27;317610;-79
2024/02/23 03:20:20;;;;;;;24.07;17.93;;;;;;;;;;5139176;27;317933;-79
2024/02/23 03:22:48;;;;;;;27.20;16.87;;;;;;;;;;5143218;27;317911;-79
2024/02/23 03:25:16;;;;;;;21.00;15.33;;;;;;;;;;5138754;27;318178;-79
2024/02/23 03:27:44;;;;;;;23.47;15.67;;;;;;;;;;5150755;27;318280;-79
2024/02/23 03:30:14;;;;;;;23.10;16.33;;;;;;;;;;5145175;27;318329;-79
2024/02/23 03:32:42;;;;;;;45.73;25.73;;;;;;;;;;5141586;27;318615;-79
2024/02/23 03:35:10;;;;;;;27.40;18.50;;;;;;;;;;5148788;27;317399;-79
2024/02/23 03:37:37;;;;;;;25.33;18.17;;;;;;;;;;5132823;27;418047;-79
2024/02/23 03:40:06;;;;;;;21.67;15.70;;;;;;;;;;5148450;27;317755;-79
2024/02/23 03:42:34;;;;;;;26.70;18.43;;;;;;;;;;5128288;27;318327;-79
2024/02/23 03:45:04;;;;;;;24.30;16.90;;;;;;;;;;5137999;27;317745;-80
2024/02/23 03:47:30;;;;;;;25.43;16.90;;;;;;;;;;5133587;27;318444;-79
2024/02/23 03:50:00;;;;;;;26.73;15.17;;;;;;;;;;5161741;27;316582;-79
2024/02/23 03:52:27;;;;;;;24.47;15.93;;;;;;;;;;5141564;27;317822;-79
2024/02/23 03:54:54;;;;;;;22.10;14.17;;;;;;;;;;5162742;27;315481;-79
2024/02/23 03:57:21;;;;;;;18.53;12.97;;;;;;;;;;5150473;27;317878;-79
2024/02/23 03:59:56;;;;;;;16.83;12.30;;;;;;;;;;5165225;27;316792;-78
2024/02/23 04:02:24;;;;;;;23.37;13.67;;;;;;;;;;5134066;27;317755;-78
2024/02/23 04:04:53;;;;;;;21.50;13.70;;;;;;;;;;5165381;27;316802;-80
2024/02/23 04:07:24;;;;;;;21.10;13.33;;;;;;;;;;5153523;27;316835;-79
2024/02/23 04:09:54;;;;;;;23.30;15.87;;;;;;;;;;5164565;27;316858;-79
2024/02/23 04:12:23;;;;;;;22.17;15.40;;;;;;;;;;5147949;27;317241;-79
2024/02/23 04:14:50;;;;;;;24.60;16.00;;;;;;;;;;5159873;27;317651;-79
2024/02/23 04:17:18;;;;;;;28.23;18.03;;;;;;;;;;5138430;27;317990;-80
2024/02/23 04:19:46;;;;;;;38.30;24.47;;;;;;;;;;5150216;27;316559;-79
2024/02/23 04:22:14;;;;;;;50.10;25.70;;;;;;;;;;5137595;27;318242;-79
2024/02/23 04:24:44;;;;;;;50.63;26.83;;;;;;;;;;5141732;27;318385;-79
2024/02/23 04:27:10;;;;;;;50.47;26.57;;;;;;;;;;5136105;27;318309;-80
2024/02/23 04:29:38;;;;;;;59.17;26.63;;;;;;;;;;5149519;27;317493;-79
2024/02/23 04:32:07;;;;;;;68.07;27.47;;;;;;;;;;5149635;27;317652;-79
2024/02/23 04:34:35;;;;;;;60.60;28.27;;;;;;;;;;5128238;27;318364;-79
2024/02/23 04:37:03;;;;;;;64.30;26.50;;;;;;;;;;5145374;27;318271;-79
2024/02/23 04:39:31;;;;;;;51.53;25.03;;;;;;;;;;5132725;27;349033;-81
2024/02/23 04:42:01;;;;;;;53.07;25.40;;;;;;;;;;5145439;27;317994;-79
2024/02/23 04:44:31;;;;;;;57.07;26.93;;;;;;;;;;5126011;27;356567;-78
2024/02/23 04:46:58;;;;;;;63.60;30.63;;;;;;;;;;5143683;27;318432;-79
2024/02/23 04:49:25;;;;;;;58.97;31.57;;;;;;;;;;5133429;27;329102;-78
2024/02/23 04:51:53;;;;;;;54.27;27.97;;;;;;;;;;5144293;27;316635;-78
2024/02/23 04:54:20;;;;;;;42.30;26.93;;;;;;;;;;5127908;27;317875;-81
2024/02/23 04:56:48;;;;;;;41.27;23.97;;;;;;;;;;5145530;27;318304;-80
2024/02/23 04:59:17;;;;;;;31.83;21.47;;;;;;;;;;5132153;27;318178;-80
2024/02/23 05:01:45;;;;;;;28.00;19.63;;;;;;;;;;5148220;27;318351;-78
2024/02/23 05:04:11;;;;;;;30.63;18.80;;;;;;;;;;5124096;27;329251;-78
2024/02/23 05:06:38;;;;;;;27.73;18.53;;;;;;;;;;5140713;27;317774;-79
2024/02/23 05:09:08;;;;;;;28.07;18.93;;;;;;;;;;5136349;27;317795;-80
2024/02/23 05:11:35;;;;;;;31.13;20.73;;;;;;;;;;5134062;27;417331;-80
2024/02/23 05:14:02;;;;;;;44.60;28.03;;;;;;;;;;5146852;27;317563;-79
2024/02/23 05:16:31;;;;;;;39.67;26.20;;;;;;;;;;5128778;27;318158;-79
2024/02/23 05:18:59;;;;;;;38.93;25.17;;;;;;;;;;5148945;27;317978;-79
2024/02/23 05:21:27;;;;;;;34.40;22.93;;;;;;;;;;5138161;27;317952;-79
2024/02/23 05:23:55;;;;;;;34.47;22.70;;;;;;;;;;5145536;27;317625;-79
2024/02/23 05:26:24;;;;;;;31.70;22.30;;;;;;;;;;5146165;27;317848;-79
2024/02/23 05:28:50;;;;;;;33.13;21.70;;;;;;;;;;5165856;27;317510;-79
2024/02/23 05:31:18;;;;;;;36.57;21.10;;;;;;;;;;5151603;27;317631;-79
2024/02/23 05:33:49;;;;;;;36.77;22.37;;;;;;;;;;5149462;27;318754;-79
2024/02/23 05:36:15;;;;;;;33.90;22.07;;;;;;;;;;5139620;27;317266;-79
2024/02/23 05:38:45;;;;;;;35.30;22.53;;;;;;;;;;5150771;27;315873;-79
2024/02/23 05:41:13;;;;;;;37.70;22.80;;;;;;;;;;5130449;27;324576;-81
2024/02/23 05:43:41;;;;;;;43.53;24.30;;;;;;;;;;5144692;27;318213;-81
2024/02/23 05:46:09;;;;;;;38.83;24.00;;;;;;;;;;5147008;27;318385;-80
2024/02/23 05:48:37;;;;;;;42.07;25.07;;;;;;;;;;5122062;27;419490;-79
2024/02/23 05:51:10;;;;;;;30.87;21.23;;;;;;;;;;5145385;27;318062;-80
2024/02/23 05:53:37;;;;;;;31.03;19.20;;;;;;;;;;5131982;27;417605;-79
2024/02/23 05:56:05;;;;;;;31.87;19.73;;;;;;;;;;5148869;27;318113;-80
2024/02/23 05:58:32;;;;;;;36.00;21.10;;;;;;;;;;5127037;27;317907;-79
2024/02/23 06:01:00;;;;;;;34.53;20.87;;;;;;;;;;5143581;27;318227;-79
2024/02/23 06:03:28;;;;;;;42.90;28.13;;;;;;;;;;5130709;27;317976;-80
2024/02/23 06:05:56;;;;;;;42.30;27.07;;;;;;;;;;5142960;27;318221;-79
2024/02/23 06:08:27;;;;;;;43.23;24.80;;;;;;;;;;5123794;27;318648;-78
2024/02/23 06:10:59;;;;;;;41.77;25.67;;;;;;;;;;5146292;27;318386;-80
2024/02/23 06:13:27;;;;;;;36.37;25.43;;;;;;;;;;5117129;27;317798;-80
2024/02/23 06:15:53;;;;;;;51.50;26.70;;;;;;;;;;5148131;27;318346;-79
2024/02/23 06:18:23;;;;;;;43.47;28.70;;;;;;;;;;5128270;27;318197;-79
2024/02/23 06:20:51;;;;;;;50.93;32.67;;;;;;;;;;5147595;27;318505;-80
2024/02/23 06:23:30;;;;;;;50.53;35.80;;;;;;;;;;5135465;27;318171;-82
2024/02/23 06:25:59;;;;;;;57.47;38.33;;;;;;;;;;5149263;27;317560;-80
2024/02/23 06:28:25;;;;;;;76.37;44.10;;;;;;;;;;5129108;27;317780;-80
2024/02/23 06:30:53;;;;;;;70.20;40.73;;;;;;;;;;5139593;27;318235;-80
2024/02/23 06:33:20;;;;;;;53.27;36.67;;;;;;;;;;5136072;27;317824;-80
2024/02/23 06:35:49;;;;;;;69.70;38.40;;;;;;;;;;5146440;27;347385;-81
2024/02/23 06:38:16;;;;;;;64.50;38.53;;;;;;;;;;5135761;27;317898;-80
2024/02/23 06:40:47;;;;;;;64.97;40.07;;;;;;;;;;5137313;27;318239;-80
2024/02/23 06:43:14;;;;;;;91.27;55.80;;;;;;;;;;5133011;27;387662;-81
2024/02/23 06:45:42;;;;;;;90.73;55.60;;;;;;;;;;5148416;27;318123;-80
2024/02/23 06:48:12;;;;;;;93.00;58.30;;;;;;;;;;5148363;27;317866;-79
2024/02/23 06:50:40;;;;;;;98.03;59.03;;;;;;;;;;5123870;27;417842;-79
2024/02/23 06:53:08;;;;;;;104.27;60.13;;;;;;;;;;5147696;27;318089;-79
2024/02/23 06:55:39;;;;;;;91.27;49.30;;;;;;;;;;5131533;27;418143;-79
2024/02/23 06:58:14;;;;;;;72.77;47.07;;;;;;;;;;5144988;27;318362;-79
2024/02/23 07:00:41;;;;;;;88.07;50.60;;;;;;;;;;5117841;27;417708;-78
2024/02/23 07:03:07;;;;;;;67.87;46.93;;;;;;;;;;5144381;27;318312;-81
2024/02/23 07:05:36;;;;;;;65.10;41.50;;;;;;;;;;5128807;27;318155;-79
2024/02/23 07:08:05;;;;;;;46.53;32.77;;;;;;;;;;5143931;27;318526;-79
2024/02/23 07:10:31;;;;;;;50.83;32.90;;;;;;;;;;5126194;27;318136;-79
2024/02/23 07:12:59;;;;;;;57.67;31.23;;;;;;;;;;5144786;27;318193;-79
2024/02/23 07:15:29;;;;;;;48.50;31.13;;;;;;;;;;5134302;27;318062;-78
2024/02/23 07:17:58;;;;;;;44.90;29.80;;;;;;;;;;5145652;27;318196;-78
2024/02/23 07:20:25;;;;;;;47.77;33.43;;;;;;;;;;5126577;27;317978;-78
2024/02/23 07:22:51;;;;;;;40.17;27.10;;;;;;;;;;5127049;27;318078;-79
2024/02/23 07:25:20;;;;;;;36.23;25.53;;;;;;;;;;5133437;27;318300;-78
2024/02/23 07:27:49;;;;;;;38.63;26.67;;;;;;;;;;5147160;27;318627;-80
2024/02/23 07:30:19;;;;;;;45.23;23.70;;;;;;;;;;5134896;27;343239;-81
2024/02/23 07:32:47;;;;;;;23.70;15.93;;;;;;;;;;5145114;27;318145;-83
2024/02/23 07:35:14;;;;;;;24.97;15.83;;;;;;;;;;5136415;27;318431;-80
2024/02/23 07:37:42;;;;;;;27.47;16.20;;;;;;;;;;5148734;27;317497;-79
2024/02/23 07:40:12;;;;;;;24.33;16.70;;;;;;;;;;5148499;27;317825;-80
2024/02/23 07:42:41;;;;;;;23.67;17.37;;;;;;;;;;5122138;27;419016;-78
2024/02/23 07:45:10;;;;;;;23.17;15.93;;;;;;;;;;5143484;27;318314;-78
2024/02/23 07:47:40;;;;;;;21.00;15.40;;;;;;;;;;5130946;27;419179;-80
2024/02/23 07:50:10;;;;;;;25.00;17.97;;;;;;;;;;5144734;27;317963;-80
2024/02/23 07:52:37;;;;;;;31.83;17.80;;;;;;;;;;5121701;27;418804;-79
2024/02/23 07:55:08;;;;;;;27.23;19.90;;;;;;;;;;5143130;27;318256;-78
2024/02/23 07:57:35;;;;;;;33.27;20.13;;;;;;;;;;5135820;27;318617;-78
2024/02/23 08:00:04;;;;;;;30.50;22.40;;;;;;;;;;5145991;27;318549;-80
2024/02/23 08:02:33;;;;;;;27.97;19.17;;;;;;;;;;5125973;27;318612;-79
2024/02/23 08:05:03;;;;;;;27.13;21.13;;;;;;;;;;5144105;27;318826;-79
2024/02/23 08:07:32;;;;;;;26.77;20.87;;;;;;;;;;5134337;27;318591;-80
2024/02/23 08:10:02;;;;;;;32.20;20.73;;;;;;;;;;5143645;27;317531;-79
2024/02/23 08:12:29;;;;;;;35.47;23.50;;;;;;;;;;5124301;27;318971;-78
2024/02/23 08:15:00;;;;;;;30.73;20.80;;;;;;;;;;5143497;27;318721;-79
2024/02/23 08:17:26;;;;;;;35.40;22.23;;;;;;;;;;5135106;27;318849;-79
2024/02/23 08:19:54;;;;;;;32.00;20.57;;;;;;;;;;5145740;27;319133;-79
2024/02/23 08:22:24;;;;;;;18.63;14.77;;;;;;;;;;5127402;27;318432;-79
2024/02/23 08:24:53;;;;;;;18.57;15.13;;;;;;;;;;5144119;27;339905;-79
2024/02/23 08:27:22;;;;;;;15.77;13.00;;;;;;;;;;5135017;27;318725;-79
2024/02/23 08:29:50;;;;;;;39.03;25.00;;;;;;;;;;5146166;27;318116;-79
2024/02/23 08:32:20;;;;;;;18.93;12.97;;;;;;;;;;5133043;27;319073;-79
2024/02/23 08:34:47;;;;;;;19.33;13.50;;;;;;;;;;5148565;27;317520;-80
2024/02/23 08:37:14;;;;;;;17.80;13.60;;;;;;;;;;5136563;27;319344;-80
2024/02/23 08:39:42;;;;;;;16.93;13.83;;;;;;;;;;5144499;27;319202;-78
2024/02/23 08:42:11;;;;;;;20.97;14.37;;;;;;;;;;5147340;27;341881;-79
2024/02/23 08:44:40;;;;;;;21.23;13.37;;;;;;;;;;5126039;27;418523;-80
2024/02/23 08:47:07;;;;;;;22.63;14.50;;;;;;;;;;5147893;27;317783;-81
2024/02/23 08:49:35;;;;;;;19.07;15.23;;;;;;;;;;5142453;27;318787;-79
2024/02/23 08:52:03;;;;;;;28.70;18.53;;;;;;;;;;5165661;27;316202;-81
2024/02/23 08:54:31;;;;;;;29.00;17.53;;;;;;;;;;5146119;27;316319;-82
2024/02/23 08:57:00;;;;;;;20.70;14.00;;;;;;;;;;5164160;27;317253;-81
2024/02/23 08:59:34;;;;;;;19.53;15.33;;;;;;;;;;5154576;27;316300;-79
2024/02/23 09:02:00;;;;;;;16.80;12.33;;;;;;;;;;5148088;27;317250;-81
2024/02/23 09:04:27;;;;;;;17.90;13.30;;;;;;;;;;5144590;27;317389;-80
2024/02/23 09:06:54;;;;;;;22.93;13.20;;;;;;;;;;5147393;27;319278;-82
2024/02/23 09:09:22;;;;;;;22.27;15.27;;;;;;;;;;5132452;27;317779;-81
2024/02/23 09:11:50;;;;;;;19.33;14.43;;;;;;;;;;5144056;27;317838;-82
2024/02/23 09:14:19;;;;;;;18.27;15.03;;;;;;;;;;5135278;27;318615;-79
2024/02/23 09:16:51;;;;;;;25.67;17.43;;;;;;;;;;5140715;27;319127;-82
2024/02/23 09:19:18;;;;;;;24.93;18.00;;;;;;;;;;5133365;27;319246;-82
2024/02/23 09:21:48;;;;;;;24.77;17.87;;;;;;;;;;5124626;27;319099;-81
2024/02/23 09:24:16;;;;;;;22.63;15.37;;;;;;;;;;5144484;27;332755;-82
2024/02/23 09:26:47;;;;;;;22.50;15.50;;;;;;;;;;5133727;27;317622;-83
2024/02/23 09:29:15;;;;;;;43.87;22.63;;;;;;;;;;5144805;27;317482;-83
2024/02/23 09:31:47;;;;;;;59.30;33.90;;;;;;;;;;5133114;27;318653;-81
2024/02/23 09:34:17;;;;;;;25.73;17.40;;;;;;;;;;5145627;27;318825;-82
2024/02/23 09:36:45;;;;;;;28.17;18.17;;;;;;;;;;5131800;27;318727;-81
2024/02/23 09:39:12;;;;;;;28.10;17.67;;;;;;;;;;5147008;27;318762;-83
2024/02/23 09:41:40;;;;;;;39.10;22.93;;;;;;;;;;5133183;27;318795;-81
2024/02/23 09:44:09;;;;;;;47.47;27.30;;;;;;;;;;5140936;27;317686;-81
2024/02/23 09:46:37;;;;;;;38.77;22.57;;;;;;;;;;5138705;27;319030;-81
2024/02/23 09:49:07;;;;;;;32.00;19.93;;;;;;;;;;5147858;27;317447;-81
2024/02/23 09:51:37;;;;;;;27.27;16.00;;;;;;;;;;5132998;27;317598;-79
2024/02/23 09:54:06;;;;;;;15.23;9.23;;;;;;;;;;5139224;27;317626;-80
2024/02/23 09:56:33;;;;;;;12.50;7.57;;;;;;;;;;5134115;27;359649;-82
2024/02/23 09:59:02;;;;;;;7.73;5.70;;;;;;;;;;5144456;27;316612;-82
2024/02/23 10:01:33;;;;;;;5.83;5.23;;;;;;;;;;5147581;27;315321;-81
2024/02/23 10:04:04;;;;;;;5.93;3.93;;;;;;;;;;5123346;27;416405;-82
2024/02/23 10:06:31;;;;;;;5.87;3.73;;;;;;;;;;5146409;27;315151;-81
2024/02/23 10:09:03;;;;;;;7.13;3.43;;;;;;;;;;5133676;27;416356;-81
2024/02/23 10:11:31;;;;;;;4.77;3.33;;;;;;;;;;5146932;27;341934;-80
2024/02/23 10:13:58;;;;;;;4.63;3.53;;;;;;;;;;5128849;27;339872;-81
2024/02/23 10:16:26;;;;;;;11.60;6.33;;;;;;;;;;5151701;27;316720;-80
2024/02/23 10:18:54;;;;;;;6.57;4.47;;;;;;;;;;5140548;27;317622;-83
2024/02/23 10:21:25;;;;;;;5.13;4.20;;;;;;;;;;5152564;27;316434;-81
2024/02/23 10:23:52;;;;;;;8.13;4.07;;;;;;;;;;5135894;27;315233;-82
2024/02/23 10:26:24;;;;;;;5.13;3.60;;;;;;;;;;5155544;27;314446;-82
2024/02/23 10:28:53;;;;;;;7.37;4.27;;;;;;;;;;5148977;27;315534;-80
2024/02/23 10:31:24;;;;;;;13.87;8.23;;;;;;;;;;5158025;27;315439;-79
2024/02/23 10:33:52;;;;;;;10.60;5.70;;;;;;;;;;5139605;27;317322;-80
2024/02/23 10:36:22;;;;;;;9.00;5.13;;;;;;;;;;5158517;27;317485;-80
2024/02/23 10:38:57;;;;;;;12.48;6.82;;;;;;;;;;5146502;27;316330;-82
2024/02/23 10:41:28;;;;;;;11.63;4.73;;;;;;;;;;5164858;27;315287;-82
2024/02/23 10:43:59;;;;;;;6.13;4.80;;;;;;;;;;5146272;27;316399;-81
2024/02/23 10:46:26;;;;;;;6.63;3.53;;;;;;;;;;5156062;27;315478;-82
2024/02/23 10:48:56;;;;;;;6.50;3.23;;;;;;;;;;5137408;27;315251;-82
2024/02/23 10:51:25;;;;;;;7.00;3.90;;;;;;;;;;5158453;27;314579;-82
2024/02/23 10:53:54;;;;;;;8.63;3.73;;;;;;;;;;5137688;27;316480;-82
2024/02/23 10:56:22;;;;;;;5.68;2.80;;;;;;;;;;5158100;27;315313;-80
2024/02/23 10:58:53;;;;;;;7.35;4.37;;;;;;;;;;5145967;27;315371;-81
2024/02/23 11:01:23;;;;;;;3.70;2.90;;;;;;;;;;5159223;27;315367;-81
2024/02/23 11:03:50;;;;;;;4.87;3.15;;;;;;;;;;5132468;27;315184;-81
2024/02/23 11:06:20;;;;;;;4.72;1.92;;;;;;;;;;5158737;27;315154;-82
2024/02/23 11:08:49;;;;;;;12.80;6.30;;;;;;;;;;5146673;27;316571;-82
2024/02/23 11:11:17;;;;;;;21.85;10.63;;;;;;;;;;5157141;27;317628;-81
2024/02/23 11:13:46;;;;;;;16.65;8.75;;;;;;;;;;5144796;27;317301;-81
2024/02/23 11:16:24;;;;;;;15.18;6.70;;;;;;;;;;5156090;27;317485;-80
2024/02/23 11:18:50;;;;;;;8.90;4.85;;;;;;;;;;5144161;27;316687;-80
2024/02/23 11:21:19;;;;;;;23.35;5.00;;;;;;;;;;5157146;27;316707;-79
2024/02/23 11:23:49;;;;;;;6.53;3.85;;;;;;;;;;5139754;27;349842;-80
2024/02/23 11:26:19;;;;;;;7.22;3.58;;;;;;;;;;5149049;27;315453;-81
2024/02/23 11:28:49;;;;;;;7.87;4.70;;;;;;;;;;5145025;27;316429;-81
2024/02/23 11:31:23;;;;;;;8.75;5.03;;;;;;;;;;5152885;27;315190;-82
2024/02/23 11:33:50;;;;;;;6.93;3.03;;;;;;;;;;5126608;27;316729;-82
2024/02/23 11:36:24;;;;;;;4.70;2.55;;;;;;;;;;5149790;27;316820;-82
2024/02/23 11:38:58;;;;;;;9.98;2.83;;;;;;;;;;5134674;27;316663;-82
2024/02/23 11:41:26;;;;;;;6.70;4.00;;;;;;;;;;5148785;27;316902;-81
2024/02/23 11:43:55;;;;;;;4.68;2.37;;;;;;;;;;5129840;27;316872;-82
2024/02/23 11:46:25;;;;;;;3.87;2.08;;;;;;;;;;5147422;27;316609;-80
2024/02/23 11:48:54;;;;;;;4.05;3.30;;;;;;;;;;5137656;27;316826;-82
2024/02/23 11:51:26;;;;;;;2.22;1.50;;;;;;;;;;5147047;27;315407;-82
2024/02/23 11:53:58;;;;;;;4.40;1.50;;;;;;;;;;5126761;27;316763;-83
2024/02/23 11:56:25;;;;;;;3.22;2.00;;;;;;;;;;5145594;27;319810;-81
2024/02/23 11:58:54;;;;;;;5.68;2.20;;;;;;;;;;5138212;27;315583;-81
2024/02/23 12:01:38;;;;;;;4.40;2.83;;;;;;;;;;5143811;27;316778;-82
2024/02/23 12:04:06;;;;;;;3.53;1.40;;;;;;;;;;5116081;27;416168;-82
2024/02/23 12:06:36;;;;;;;1.40;1.27;;;;;;;;;;5146426;27;315389;-81
2024/02/23 12:09:05;;;;;;;2.12;1.60;;;;;;;;;;5130330;27;417011;-81
2024/02/23 12:11:34;;;;;;;4.45;2.65;;;;;;;;;;5147282;27;316502;-82
2024/02/23 12:14:07;;;;;;;6.05;4.28;;;;;;;;;;5124002;27;417050;-81
2024/02/23 12:16:34;;;;;;;1.45;1.30;;;;;;;;;;5135533;27;315426;-82
2024/02/23 12:19:05;;;;;;;3.28;2.00;;;;;;;;;;5147005;27;316792;-82
2024/02/23 12:21:35;;;;;;;3.90;2.55;;;;;;;;;;5146664;27;315492;-81
2024/02/23 12:24:07;;;;;;;10.02;2.10;;;;;;;;;;5123143;27;416950;-82
2024/02/23 12:26:34;;;;;;;2.28;1.83;;;;;;;;;;5134756;27;317690;-80
2024/02/23 12:29:03;;;;;;;7.18;1.90;;;;;;;;;;5146801;27;315714;-81
2024/02/23 12:31:35;;;;;;;6.30;4.55;;;;;;;;;;5146438;27;316666;-82
2024/02/23 12:34:03;;;;;;;21.60;8.52;;;;;;;;;;5121912;27;417768;-81
2024/02/23 12:36:30;;;;;;;53.30;26.90;;;;;;;;;;5146282;27;316983;-81
2024/02/23 12:38:58;;;;;;;9.60;5.55;;;;;;;;;;5135710;27;317718;-82
2024/02/23 12:41:27;;;;;;;3.30;2.47;;;;;;;;;;5149493;27;315829;-81
2024/02/23 12:43:54;;;;;;;3.47;2.25;;;;;;;;;;5130231;27;316627;-84
2024/02/23 12:46:23;;;;;;;3.42;2.45;;;;;;;;;;5148988;27;316624;-82
2024/02/23 12:48:52;;;;;;;6.25;5.03;;;;;;;;;;5137393;27;316586;-82
2024/02/23 12:51:26;;;;;;;4.30;3.90;;;;;;;;;;5147407;27;316722;-81
2024/02/23 12:53:54;;;;;;;12.30;9.57;;;;;;;;;;5127940;27;316729;-81
2024/02/23 12:56:22;;;;;;;8.93;3.22;;;;;;;;;;5145584;27;352433;-81
2024/02/23 12:58:50;;;;;;;19.42;11.65;;;;;;;;;;5135836;27;316775;-82
2024/02/23 13:01:17;;;;;;;19.27;14.05;;;;;;;;;;5148190;27;318700;-81
2024/02/23 13:03:46;;;;;;;13.02;7.05;;;;;;;;;;5134732;27;342080;-81
2024/02/23 13:06:15;;;;;;;8.95;4.97;;;;;;;;;;5148682;27;317408;-81
2024/02/23 13:08:46;;;;;;;7.90;7.10;;;;;;;;;;5134543;27;316620;-82
2024/02/23 13:11:14;;;;;;;5.45;3.10;;;;;;;;;;5147389;27;316538;-81
2024/02/23 13:13:43;;;;;;;2.62;2.03;;;;;;;;;;5126713;27;316454;-81
2024/02/23 13:16:14;;;;;;;4.93;2.55;;;;;;;;;;5143574;27;317125;-81
2024/02/23 13:18:46;;;;;;;5.18;3.72;;;;;;;;;;5137082;27;316307;-80
2024/02/23 13:21:13;;;;;;;5.15;3.03;;;;;;;;;;5148471;27;316965;-80
2024/02/23 13:23:41;;;;;;;3.55;2.80;;;;;;;;;;5135992;27;317126;-81
2024/02/23 13:26:14;;;;;;;5.32;2.78;;;;;;;;;;5142633;27;316337;-80
2024/02/23 13:28:41;;;;;;;5.05;2.92;;;;;;;;;;5134515;27;317375;-82
2024/02/23 13:31:09;;;;;;;5.15;2.92;;;;;;;;;;5146702;27;319339;-82
2024/02/23 13:33:36;;;;;;;2.53;2.17;;;;;;;;;;5135374;27;317055;-80
2024/02/23 13:36:04;;;;;;;4.30;2.87;;;;;;;;;;5139888;27;317245;-80
2024/02/23 13:38:37;;;;;;;5.07;3.65;;;;;;;;;;5148657;27;316786;-81
2024/02/23 13:41:06;;;;;;;3.60;2.47;;;;;;;;;;5133447;27;415213;-81
2024/02/23 13:43:35;;;;;;;3.42;2.33;;;;;;;;;;5149056;27;316730;-81
2024/02/23 13:46:03;;;;;;;5.25;3.15;;;;;;;;;;5125633;27;416233;-81
2024/02/23 13:48:32;;;;;;;7.05;3.28;;;;;;;;;;5148064;27;317022;-81
2024/02/23 13:51:04;;;;;;;4.97;2.97;;;;;;;;;;5133564;27;416619;-81
2024/02/23 13:53:32;;;;;;;3.97;2.55;;;;;;;;;;5147997;27;316422;-81
2024/02/23 13:56:03;;;;;;;7.70;3.30;;;;;;;;;;5124009;27;415962;-81
2024/02/23 13:58:32;;;;;;;5.25;2.80;;;;;;;;;;5148167;27;317191;-82
2024/02/23 14:01:02;;;;;;;3.20;2.85;;;;;;;;;;5131498;27;417622;-81
2024/02/23 14:03:30;;;;;;;6.62;3.28;;;;;;;;;;5148196;27;316828;-80
2024/02/23 14:05:58;;;;;;;6.95;3.22;;;;;;;;;;5129711;27;317603;-82
2024/02/23 14:08:26;;;;;;;10.40;3.40;;;;;;;;;;5147258;27;316972;-82
2024/02/23 14:10:54;;;;;;;6.03;3.78;;;;;;;;;;5136955;27;318233;-81
2024/02/23 14:13:23;;;;;;;3.92;3.00;;;;;;;;;;5148670;27;316397;-82
2024/02/23 14:15:49;;;;;;;6.85;3.33;;;;;;;;;;5116782;27;317189;-80
2024/02/23 14:18:18;;;;;;;10.45;3.67;;;;;;;;;;5147899;27;316682;-81
2024/02/23 14:20:46;;;;;;;3.97;2.67;;;;;;;;;;5134990;27;318013;-82
2024/02/23 14:23:14;;;;;;;5.00;3.80;;;;;;;;;;5146160;27;316343;-82
2024/02/23 14:25:41;;;;;;;7.00;4.65;;;;;;;;;;5133874;27;337857;-82
2024/02/23 14:28:09;;;;;;;6.97;4.75;;;;;;;;;;5137312;27;342188;-82